createdAt,value
2018-12-23T00:01:28.555Z,3.20
2018-12-23T00:03:55.988Z,2.63
2018-12-23T00:06:23.443Z,2.80
2018-12-23T00:08:50.876Z,3.50
2018-12-23T00:11:19.280Z,2.80
2018-12-23T00:13:46.760Z,4.50
2018-12-23T00:16:14.201Z,2.63
2018-12-23T00:18:41.632Z,3.47
2018-12-23T00:21:09.096Z,4.43
2018-12-23T00:23:36.535Z,2.93
2018-12-23T00:26:03.976Z,3.30
2018-12-23T00:28:31.443Z,2.80
2018-12-23T00:30:58.872Z,2.40
2018-12-23T00:33:26.324Z,2.80
2018-12-23T00:35:53.763Z,2.93
2018-12-23T00:38:21.204Z,2.13
2018-12-23T00:40:48.724Z,3.20
2018-12-23T00:43:16.256Z,3.10
2018-12-23T00:45:43.709Z,2.00
2018-12-23T00:48:11.176Z,2.20
2018-12-23T00:50:38.607Z,1.93
2018-12-23T00:53:06.158Z,2.50
2018-12-23T00:55:33.601Z,2.40
2018-12-23T00:58:01.058Z,2.17
2018-12-23T01:00:28.501Z,2.10
2018-12-23T01:02:55.973Z,1.90
2018-12-23T01:05:28.720Z,2.60
2018-12-23T01:07:52.825Z,2.30
2018-12-23T01:10:20.270Z,2.20
2018-12-23T01:12:47.713Z,2.10
2018-12-23T01:15:15.149Z,2.20
2018-12-23T01:17:42.592Z,2.47
2018-12-23T01:20:10.128Z,2.30
2018-12-23T01:22:37.587Z,2.13
2018-12-23T01:25:06.122Z,4.63
2018-12-23T01:27:33.568Z,5.13
2018-12-23T01:30:01.976Z,3.60
2018-12-23T01:32:29.438Z,2.00
2018-12-23T01:34:56.863Z,2.60
2018-12-23T01:37:24.308Z,2.60
2018-12-23T01:39:51.746Z,2.10
2018-12-23T01:42:19.219Z,1.77
2018-12-23T01:44:46.664Z,2.03
2018-12-23T01:47:14.147Z,1.70
2018-12-23T01:49:41.593Z,2.10
2018-12-23T01:52:09.038Z,2.13
2018-12-23T01:54:36.490Z,2.00
2018-12-23T01:57:04.011Z,2.20
2018-12-23T01:59:31.536Z,2.03
2018-12-23T02:01:58.974Z,2.20
2018-12-23T02:04:26.486Z,2.40
2018-12-23T02:06:53.920Z,1.87
2018-12-23T02:09:21.374Z,2.10
2018-12-23T02:11:48.816Z,2.10
2018-12-23T02:14:16.274Z,1.83
2018-12-23T02:16:43.718Z,2.33
2018-12-23T02:19:11.168Z,1.60
2018-12-23T02:21:38.622Z,2.10
2018-12-23T02:24:06.069Z,2.47
2018-12-23T02:26:33.499Z,1.80
2018-12-23T02:29:00.976Z,1.63
2018-12-23T02:31:28.433Z,2.20
2018-12-23T02:33:55.875Z,1.80
2018-12-23T02:36:23.400Z,1.83
2018-12-23T02:38:50.863Z,1.97
2018-12-23T02:41:19.281Z,1.70
2018-12-23T02:43:46.750Z,2.10
2018-12-23T02:46:19.150Z,1.90
2018-12-23T02:48:46.596Z,2.47
2018-12-23T02:51:14.034Z,2.87
2018-12-23T02:53:41.624Z,1.97
2018-12-23T02:56:09.071Z,2.40
2018-12-23T02:58:36.521Z,2.37
2018-12-23T03:01:03.989Z,1.87
2018-12-23T03:03:31.448Z,2.40
2018-12-23T03:06:05.791Z,2.20
2018-12-23T03:08:28.312Z,1.53
2018-12-23T03:10:55.749Z,1.67
2018-12-23T03:13:23.271Z,2.00
2018-12-23T03:15:50.708Z,2.10
2018-12-23T03:18:18.182Z,2.77
2018-12-23T03:20:45.618Z,1.83
2018-12-23T03:23:13.073Z,2.00
2018-12-23T03:25:40.495Z,2.00
2018-12-23T03:28:07.976Z,2.10
2018-12-23T03:30:35.409Z,2.10
2018-12-23T03:33:02.861Z,2.13
2018-12-23T03:35:30.284Z,1.80
2018-12-23T03:37:57.755Z,1.97
2018-12-23T03:40:25.272Z,1.60
2018-12-23T03:42:52.718Z,2.10
2018-12-23T03:45:20.262Z,2.50
2018-12-23T03:47:47.771Z,2.10
2018-12-23T03:50:15.249Z,2.07
2018-12-23T03:52:42.777Z,2.10
2018-12-23T03:55:10.261Z,2.63
2018-12-23T03:57:37.773Z,1.90
2018-12-23T04:00:05.582Z,2.30
2018-12-23T04:02:33.078Z,2.20
2018-12-23T04:05:00.609Z,1.63
2018-12-23T04:07:28.075Z,2.30
2018-12-23T04:09:55.573Z,2.27
2018-12-23T04:12:23.143Z,2.33
2018-12-23T04:14:50.613Z,2.17
2018-12-23T04:17:18.079Z,2.30
2018-12-23T04:19:48.785Z,2.37
2018-12-23T04:22:16.238Z,2.60
2018-12-23T04:24:43.719Z,2.40
2018-12-23T04:27:11.174Z,2.13
2018-12-23T04:29:38.686Z,2.00
2018-12-23T04:32:06.132Z,2.23
2018-12-23T04:34:33.699Z,2.27
2018-12-23T04:37:01.169Z,1.93
2018-12-23T04:39:28.648Z,1.90
2018-12-23T04:41:56.133Z,2.70
2018-12-23T04:44:23.632Z,2.60
2018-12-23T04:46:51.072Z,2.97
2018-12-23T04:49:18.541Z,1.83
2018-12-23T04:51:46.057Z,1.97
2018-12-23T04:54:13.524Z,2.40
2018-12-23T04:56:40.989Z,1.80
2018-12-23T04:59:08.478Z,1.90
2018-12-23T05:01:36.856Z,1.87
2018-12-23T05:04:04.352Z,1.90
2018-12-23T05:06:31.824Z,2.00
2018-12-23T05:08:59.305Z,2.27
2018-12-23T05:11:26.767Z,2.67
2018-12-23T05:13:54.248Z,1.70
2018-12-23T05:16:21.737Z,2.07
2018-12-23T05:18:50.212Z,2.50
2018-12-23T05:21:17.750Z,1.97
2018-12-23T05:23:45.329Z,1.60
2018-12-23T05:26:12.789Z,17.90
2018-12-23T05:28:40.273Z,15.40
2018-12-23T05:31:07.742Z,4.00
2018-12-23T05:33:35.216Z,2.53
2018-12-23T05:36:02.681Z,1.87
2018-12-23T05:38:30.236Z,2.30
2018-12-23T05:40:57.693Z,2.57
2018-12-23T05:43:25.199Z,1.80
2018-12-23T05:45:52.685Z,2.53
2018-12-23T05:48:20.173Z,3.27
2018-12-23T05:50:47.686Z,2.10
2018-12-23T05:53:15.190Z,2.30
2018-12-23T05:55:42.283Z,12.53
2018-12-23T05:58:10.360Z,5.83
2018-12-23T06:00:37.835Z,37.77
2018-12-23T06:03:05.341Z,23.63
2018-12-23T06:05:32.820Z,5.17
2018-12-23T06:08:00.292Z,9.67
2018-12-23T06:10:27.785Z,7.30
2018-12-23T06:12:55.240Z,6.90
2018-12-23T06:15:23.659Z,5.23
2018-12-23T06:17:51.172Z,8.80
2018-12-23T06:20:18.641Z,8.77
2018-12-23T06:22:46.136Z,25.27
2018-12-23T06:25:13.643Z,7.20
2018-12-23T06:27:41.133Z,2.47
2018-12-23T06:30:08.656Z,8.27
2018-12-23T06:32:36.132Z,10.67
2018-12-23T06:35:03.687Z,8.70
2018-12-23T06:37:31.156Z,10.23
2018-12-23T06:39:58.639Z,5.60
2018-12-23T06:42:26.194Z,2.40
2018-12-23T06:44:53.709Z,1.97
2018-12-23T06:47:21.164Z,2.13
2018-12-23T06:49:48.702Z,4.20
2018-12-23T06:52:16.787Z,3.17
2018-12-23T06:54:44.285Z,8.27
2018-12-23T06:57:12.741Z,6.00
2018-12-23T06:59:40.234Z,2.70
2018-12-23T07:02:07.710Z,2.30
2018-12-23T07:04:35.203Z,2.17
2018-12-23T07:07:02.649Z,3.73
2018-12-23T07:09:30.140Z,2.40
2018-12-23T07:11:57.624Z,3.73
2018-12-23T07:14:25.931Z,2.10
2018-12-23T07:16:53.483Z,2.70
2018-12-23T07:19:21.048Z,2.40
2018-12-23T07:21:49.036Z,3.00
2018-12-23T07:24:17.056Z,2.97
2018-12-23T07:26:47.013Z,4.30
2018-12-23T07:29:15.522Z,2.83
2018-12-23T07:31:43.125Z,3.40
2018-12-23T07:34:10.779Z,2.70
2018-12-23T07:41:19.079Z,4.70
2018-12-23T07:44:00.322Z,7.90
2018-12-23T07:46:41.643Z,9.13
2018-12-23T07:49:34.775Z,16.80
2018-12-23T07:52:15.520Z,14.93
2018-12-23T07:54:58.103Z,6.93
2018-12-23T08:15:45.939Z,5.70
2018-12-23T08:21:04.138Z,6.93
2018-12-23T08:23:51.717Z,6.90
2018-12-23T08:26:39.425Z,6.27
2018-12-23T08:29:27.675Z,5.90
2018-12-23T08:32:15.825Z,4.80
2018-12-23T08:35:03.784Z,4.20
2018-12-23T08:37:51.488Z,3.93
2018-12-23T08:40:39.233Z,5.03
2018-12-23T08:43:27.108Z,4.70
2018-12-23T08:46:14.975Z,8.33
2018-12-23T08:49:02.840Z,15.10
2018-12-23T08:51:50.372Z,13.33
2018-12-23T08:54:37.923Z,12.33
2018-12-23T08:57:25.456Z,8.03
2018-12-23T09:03:08.422Z,10.93
2018-12-23T09:05:49.435Z,7.23
2018-12-23T09:08:30.641Z,5.67
2018-12-23T09:11:11.546Z,5.53
2018-12-23T09:13:52.105Z,4.53
2018-12-23T09:16:33.086Z,4.10
2018-12-23T09:19:13.855Z,3.20
2018-12-23T09:21:56.440Z,4.37
2018-12-23T09:27:38.094Z,3.63
2018-12-23T09:30:19.278Z,3.90
2018-12-23T09:32:59.149Z,3.73
2018-12-23T09:35:39.691Z,4.47
2018-12-23T09:38:20.296Z,4.17
2018-12-23T09:41:01.535Z,4.10
2018-12-23T09:49:41.921Z,3.63
2018-12-23T09:52:22.463Z,4.40
2018-12-23T09:55:02.967Z,4.10
2018-12-23T09:57:43.347Z,3.50
2018-12-23T10:00:27.116Z,4.00
2018-12-23T10:03:08.347Z,3.40
2018-12-23T10:05:49.004Z,3.07
2018-12-23T10:11:19.159Z,3.20
2018-12-23T10:14:00.091Z,3.30
2018-12-23T10:16:41.756Z,4.40
2018-12-23T10:19:22.093Z,4.00
2018-12-23T10:22:03.288Z,4.30
2018-12-23T10:24:45.535Z,5.03
2018-12-23T10:27:26.173Z,3.30
2018-12-23T10:30:07.428Z,3.70
2018-12-23T10:32:48.585Z,4.47
2018-12-23T10:35:29.133Z,4.17
2018-12-23T10:38:18.206Z,7.00
2018-12-23T10:40:50.878Z,3.77
2018-12-23T10:43:39.003Z,3.17
2018-12-23T10:46:26.897Z,4.10
2018-12-23T10:49:14.780Z,3.03
2018-12-23T10:52:02.960Z,4.00
2018-12-23T10:54:50.834Z,3.90
2018-12-23T11:03:37.144Z,4.77
2018-12-23T11:12:30.911Z,2.30
2018-12-23T12:00:42.915Z,4.50
2018-12-23T12:03:36.175Z,5.53
2018-12-23T12:14:55.153Z,5.00
2018-12-23T12:23:22.477Z,5.00
2018-12-23T12:26:17.362Z,6.97
2018-12-23T12:34:52.815Z,4.23
2018-12-23T13:03:41.802Z,5.40
2018-12-23T13:20:42.123Z,4.70
2018-12-23T13:23:31.423Z,4.87
2018-12-23T13:26:23.537Z,4.53
2018-12-23T13:34:51.871Z,5.50
2018-12-23T13:40:30.486Z,3.93
2018-12-23T13:43:26.971Z,3.60
2018-12-23T13:54:46.920Z,8.33
2018-12-23T13:57:32.489Z,9.10
2018-12-23T14:09:55.799Z,3.20
2018-12-23T14:12:45.350Z,4.00
2018-12-23T14:15:38.916Z,3.73
2018-12-23T14:27:28.908Z,5.77
2018-12-23T14:30:19.276Z,3.13
2018-12-23T14:36:05.699Z,3.37
2018-12-23T15:13:26.172Z,4.30
2018-12-23T15:19:07.129Z,5.10
2018-12-23T15:27:52.760Z,3.60
2018-12-23T15:36:30.502Z,4.00
2018-12-23T15:39:24.553Z,6.00
2018-12-23T15:42:09.958Z,8.60
2018-12-23T15:44:50.989Z,5.50
2018-12-23T15:47:32.427Z,4.10
2018-12-23T15:53:25.692Z,5.80
2018-12-23T15:59:02.486Z,5.50
2018-12-23T16:01:43.276Z,5.30
2018-12-23T16:07:36.736Z,5.37
2018-12-23T16:16:31.816Z,5.40
2018-12-23T16:19:12.995Z,7.53
2018-12-23T16:31:16.809Z,3.47
2018-12-23T16:37:09.665Z,6.60
2018-12-23T16:43:02.388Z,4.50
2018-12-23T16:45:43.324Z,6.43
2018-12-23T16:48:23.667Z,4.97
2018-12-23T16:51:04.832Z,5.73
2018-12-23T16:53:45.819Z,3.60
2018-12-23T16:56:26.230Z,4.77
2018-12-23T17:04:48.329Z,2.67
2018-12-23T17:07:29.420Z,2.20
2018-12-23T17:13:22.215Z,2.50
2018-12-23T17:16:03.406Z,3.13
2018-12-23T17:18:44.544Z,3.00
2018-12-23T17:21:24.934Z,1.90
2018-12-23T17:24:06.053Z,2.30
2018-12-23T17:26:47.065Z,3.40
2018-12-23T17:29:27.958Z,4.10
2018-12-23T17:32:09.042Z,2.10
2018-12-23T17:34:50.097Z,2.90
2018-12-23T17:40:28.997Z,2.10
2018-12-23T17:46:07.853Z,1.70
2018-12-23T17:51:50.686Z,1.30
2018-12-23T18:03:32.444Z,1.80
2018-12-23T18:06:12.875Z,3.03
2018-12-23T18:08:53.770Z,2.60
2018-12-23T18:11:34.979Z,1.33
2018-12-23T18:23:21.160Z,1.63
2018-12-23T18:29:14.716Z,1.40
2018-12-23T18:31:55.720Z,2.03
2018-12-23T18:34:36.990Z,2.10
2018-12-23T18:37:05.673Z,3.10
2018-12-23T18:39:34.192Z,2.10
2018-12-23T18:42:02.728Z,2.00
2018-12-23T18:44:31.281Z,1.80
2018-12-23T18:46:59.789Z,1.50
2018-12-23T18:49:28.338Z,2.07
2018-12-23T18:51:56.846Z,2.00
2018-12-23T18:54:25.379Z,1.80
2018-12-23T18:56:54.129Z,1.80
2018-12-23T18:59:24.713Z,1.30
2018-12-23T19:01:54.562Z,1.80
2018-12-23T19:04:44.880Z,1.90
2018-12-23T19:07:32.745Z,1.57
2018-12-23T19:10:20.284Z,2.13
2018-12-23T19:13:27.488Z,1.73
2018-12-23T19:16:34.672Z,2.13
2018-12-23T19:19:41.880Z,2.53
2018-12-23T19:22:49.079Z,2.30
2018-12-23T19:25:38.497Z,2.33
2018-12-23T19:28:45.810Z,4.33
2018-12-23T19:31:53.004Z,1.97
2018-12-23T19:35:00.273Z,2.03
2018-12-23T19:37:49.697Z,3.40
2018-12-23T19:40:30.363Z,5.83
2018-12-23T19:43:11.605Z,6.27
2018-12-23T19:45:52.246Z,5.43
2018-12-23T19:48:32.915Z,2.67
2018-12-23T19:51:13.832Z,4.20
2018-12-23T19:53:54.676Z,3.30
2018-12-23T19:56:34.999Z,8.03
2018-12-23T19:59:16.241Z,5.80
2018-12-23T20:01:57.323Z,4.70
2018-12-23T20:04:38.624Z,1.30
2018-12-23T20:07:19.705Z,4.97
2018-12-23T20:10:00.863Z,2.60
2018-12-23T20:12:42.228Z,2.60
2018-12-23T20:15:22.537Z,2.73
2018-12-23T20:18:03.666Z,1.70
2018-12-23T20:20:44.645Z,1.30
2018-12-23T20:23:25.558Z,2.90
2018-12-23T20:26:06.664Z,5.70
2018-12-23T20:28:47.768Z,1.30
2018-12-23T20:31:28.662Z,2.87
2018-12-23T20:34:09.040Z,2.77
2018-12-23T20:36:49.416Z,2.80
2018-12-23T20:39:30.569Z,2.97
2018-12-23T20:42:11.550Z,0.90
2018-12-23T20:44:52.493Z,1.23
2018-12-23T20:47:38.027Z,2.00
2018-12-23T20:50:15.227Z,2.03
2018-12-23T20:52:56.341Z,1.43
2018-12-23T20:55:37.525Z,2.40
2018-12-23T20:58:17.972Z,1.23
2018-12-23T21:00:59.088Z,4.10
2018-12-23T21:03:40.293Z,3.50
2018-12-23T21:06:21.499Z,2.27
2018-12-23T21:09:02.212Z,2.30
2018-12-23T21:11:43.409Z,2.10
2018-12-23T21:14:24.527Z,2.27
2018-12-23T21:17:05.734Z,1.20
2018-12-23T21:19:46.237Z,1.70
2018-12-23T21:22:27.343Z,5.37
2018-12-23T21:25:11.277Z,5.30
2018-12-23T21:27:49.837Z,7.07
2018-12-23T21:30:31.102Z,4.97
2018-12-23T21:33:12.215Z,2.23
2018-12-23T21:35:52.586Z,1.90
2018-12-23T21:38:59.802Z,2.97
2018-12-23T21:42:08.450Z,2.60
2018-12-23T21:45:17.092Z,3.13
2018-12-23T21:48:24.256Z,3.00
2018-12-23T21:51:31.448Z,1.57
2018-12-23T21:54:40.060Z,0.50
2018-12-23T21:57:48.665Z,0.70
2018-12-23T22:00:55.849Z,1.30
2018-12-23T22:03:36.650Z,1.10
2018-12-23T22:06:17.756Z,1.40
2018-12-23T22:08:58.439Z,0.80
2018-12-23T22:11:39.485Z,3.43
2018-12-23T22:14:19.741Z,8.70
2018-12-23T22:17:00.870Z,5.03
2018-12-23T22:19:41.616Z,2.00
2018-12-23T22:22:22.796Z,0.80
2018-12-23T22:25:04.007Z,0.70
2018-12-23T22:27:45.292Z,1.23
2018-12-23T22:30:26.514Z,2.07
2018-12-23T22:33:06.892Z,1.13
2018-12-23T22:35:47.293Z,0.90
2018-12-23T22:38:28.517Z,0.70
2018-12-23T22:41:09.480Z,1.07
2018-12-23T22:43:50.586Z,2.20
2018-12-23T22:46:31.753Z,0.83
2018-12-23T22:49:12.924Z,1.50
2018-12-23T22:51:54.128Z,2.20
2018-12-23T22:54:35.097Z,1.97
2018-12-23T22:57:15.987Z,1.63
2018-12-23T22:59:57.161Z,0.80
2018-12-23T23:02:38.338Z,1.07
2018-12-23T23:05:18.705Z,1.00
2018-12-23T23:08:01.880Z,0.90
2018-12-23T23:10:42.461Z,0.80
2018-12-23T23:13:23.071Z,0.70
2018-12-23T23:16:03.488Z,0.50
2018-12-23T23:18:44.316Z,0.60
2018-12-23T23:21:24.808Z,0.87
2018-12-23T23:24:05.156Z,0.80
2018-12-23T23:26:45.616Z,0.80
2018-12-23T23:29:25.873Z,0.77
2018-12-23T23:32:06.982Z,0.80
2018-12-23T23:34:47.647Z,0.73
2018-12-23T23:37:28.961Z,0.90
2018-12-23T23:40:09.245Z,0.70
2018-12-23T23:42:49.609Z,1.10
2018-12-23T23:45:30.538Z,0.70
2018-12-23T23:48:11.692Z,0.93
2018-12-23T23:50:52.627Z,1.07
2018-12-23T23:53:33.530Z,1.40
2018-12-23T23:56:14.615Z,0.60
2018-12-23T23:58:55.519Z,0.80
